Anthony, Texas
Current Conditions -  °F | °C
As of 8:58 PM on Monday 20 Oct 2014 (Local Time) from KBIF Reporting Station
Overcast Overcast  
Wind Chill: 64°   Ceiling: 7500
Heat Index: 64°   Visibility: 10mi
Dew Point: 54°   Wind: 5mph
Humidity: 70%   Direction: 170°S
Pressure: 30.08"   Gusts: NA
Location:  32°N, 106.61°W
Report Text: KBIF 210258Z AUTO 17004KT 10SM FEW037 BKN075 BKN100 OVC160 18/12 A3008 RMK AO2 LTG DSNT S CIG 043 RWY03 SLPNO T01750120 $
Loading
Personal Weather Stations






























Interactive Weather Map
Tropical Storm Tracking
New forecast layout! Learn more

10-Day Weather Forecast

Advertisements
Track Severe Weather on mobile